Terminal Aerodrome Forecast
Issued by NWS

Current Version | Previous Version | Graphics & Text | Print | Product List | Glossary On
Versions: 1 2 3 4 5 6 7 8 9 10 11 12 13 14 15 16 17 18 19 20
000
FTUS41 KILN 160541
TAFLUK
TAF
KLUK 160541Z 1606/1706 00000KT P6SM SCT250
     FM160800 00000KT 3SM BR SCT200
      TEMPO 1608/1612 1/2SM FG VV002
     FM161300 VRB03KT P6SM SCT040
     FM162000 19005KT P6SM VCSH BKN060
     FM170100 18005KT P6SM SCT050 BKN150=

USA.gov is the U.S. government's official web portal to all federal, state and local government web resources and services.